Time;durP1;ratioP1;P1;durP2;ratioP2;P2;SDS_P1;SDS_P2;PMS_P1;PMS_P2;Temp;Humidity;BMP_temperature;BMP_pressure;BME280_temperature;BME280_humidity;BME280_pressure;Samples;Min_cycle;Max_cycle;Signal;HPM_P1;HPM_P2
2023/12/26 00:01:30;;;;;;;;;;;7.70;99.90;;;;;;5055345;28;20037;-76
2023/12/26 00:03:55;;;;;;;43.83;21.33;;;7.80;99.90;;;;;;5054944;28;19911;-74
2023/12/26 00:06:21;;;;;;;;;;;7.60;99.90;;;;;;5055502;28;20029;-75
2023/12/26 00:08:47;;;;;;;24.63;12.80;;;7.50;99.90;;;;;;5054364;28;20289;-75
2023/12/26 00:11:13;;;;;;;;;;;7.60;99.90;;;;;;5037072;28;20024;-75
2023/12/26 00:13:38;;;;;;;13.80;6.15;;;7.60;99.90;;;;;;5036628;28;19931;-75
2023/12/26 00:16:04;;;;;;;;;;;7.60;99.90;;;;;;5054763;28;20033;-75
2023/12/26 00:18:29;;;;;;;19.67;8.05;;;7.50;99.90;;;;;;5036394;28;20381;-75
2023/12/26 00:20:55;;;;;;;;;;;7.50;99.90;;;;;;5054648;28;20029;-75
2023/12/26 00:23:21;;;;;;;18.52;9.02;;;7.40;99.90;;;;;;5036105;28;19905;-74
2023/12/26 00:25:46;;;;;;;;;;;7.50;99.90;;;;;;5054276;28;20028;-75
2023/12/26 00:28:14;;;;;;;21.60;11.50;;;7.50;99.90;;;;;;5035999;28;19904;-74
2023/12/26 00:30:40;;;;;;;28.58;15.38;;;7.40;99.90;;;;;;5035348;28;20021;-75
2023/12/26 00:33:05;;;;;;;20.75;11.73;;;7.30;99.90;;;;;;5053171;28;20497;-75
2023/12/26 00:35:31;;;;;;;;;;;7.40;99.90;;;;;;5053910;28;20025;-75
2023/12/26 00:37:58;;;;;;;21.23;10.57;;;7.40;99.90;;;;;;5035339;28;20299;-75
2023/12/26 00:40:24;;;;;;;12.32;6.57;;;7.50;99.90;;;;;;5035832;28;20021;-75
2023/12/26 00:42:50;;;;;;;;;;;7.40;99.90;;;;;;5036288;28;20081;-75
2023/12/26 00:45:15;;;;;;;11.50;6.35;;;7.40;99.90;;;;;;5037103;28;20219;-76
2023/12/26 00:47:41;;;;;;;;;;;7.30;99.90;;;;;;5037098;28;20024;-75
2023/12/26 00:50:11;;;;;;;7.32;4.28;;;7.30;99.90;;;;;;5036722;28;19913;-76
2023/12/26 00:52:38;;;;;;;9.85;4.50;;;7.30;99.90;;;;;;5036570;28;20036;-76
2023/12/26 00:55:05;;;;;;;10.65;5.65;;;7.20;99.90;;;;;;5036364;28;20126;-76
2023/12/26 00:57:33;;;;;;;11.13;5.95;;;7.30;99.90;;;;;;5036664;28;20032;-76
2023/12/26 00:59:59;;;;;;;11.43;5.97;;;7.20;99.90;;;;;;5054427;28;20186;-76
2023/12/26 01:02:25;;;;;;;;;;;7.20;99.90;;;;;;5036778;28;20549;-75
2023/12/26 01:04:51;;;;;;;15.10;7.95;;;7.20;99.90;;;;;;5054515;28;19994;-75
2023/12/26 01:07:16;;;;;;;;;;;7.10;99.90;;;;;;5054755;28;20037;-75
2023/12/26 01:09:42;;;;;;;20.27;11.38;;;7.10;99.90;;;;;;5054433;28;19904;-75
2023/12/26 01:12:08;;;;;;;;;;;7.10;99.90;;;;;;5036229;28;20588;-75
2023/12/26 01:14:33;;;;;;;10.00;5.70;;;7.10;99.90;;;;;;5053378;28;20281;-74
2023/12/26 01:16:59;;;;;;;;;;;7.20;99.90;;;;;;5035633;28;20025;-75
2023/12/26 01:19:25;;;;;;;5.90;3.20;;;7.20;99.90;;;;;;5053436;28;20424;-75
2023/12/26 01:21:50;;;;;;;;;;;7.20;99.90;;;;;;5053939;28;20036;-75
2023/12/26 01:24:16;;;;;;;8.20;4.13;;;7.10;99.90;;;;;;5053281;28;19908;-75
2023/12/26 01:26:42;;;;;;;;;;;7.10;99.90;;;;;;5035576;28;20024;-75
2023/12/26 01:29:07;;;;;;;5.50;3.17;;;7.10;99.90;;;;;;5035945;28;19940;-75
2023/12/26 01:31:36;;;;;;;;;;;7.00;99.90;;;;;;5036628;28;20025;-74
2023/12/26 01:34:03;;;;;;;5.22;2.55;;;7.00;99.90;;;;;;5036323;28;19921;-75
2023/12/26 01:36:29;;;;;;;5.63;2.70;;;6.90;99.90;;;;;;5055009;28;20116;-75
2023/12/26 01:38:54;;;;;;;;;;;6.80;99.90;;;;;;5037413;28;20079;-76
2023/12/26 01:41:20;;;;;;;7.75;3.85;;;6.80;99.90;;;;;;5037081;28;19913;-75
2023/12/26 01:43:45;;;;;;;;;;;6.80;99.90;;;;;;5039014;28;20024;-76
2023/12/26 01:46:12;;;;;;;8.73;4.85;;;6.80;99.90;;;;;;5056635;28;19912;-76
2023/12/26 01:48:39;;;;;;;8.30;4.32;;;6.70;99.90;;;;;;5036423;28;20029;-75
2023/12/26 01:51:08;;;;;;;6.97;3.55;;;6.70;99.90;;;;;;5035472;28;20052;-75
2023/12/26 01:53:38;;;;;;;6.15;3.05;;;6.60;99.90;;;;;;5053531;28;20143;-75
2023/12/26 01:56:09;;;;;;;5.82;2.60;;;6.60;99.90;;;;;;5035724;28;20129;-76
2023/12/26 01:58:36;;;;;;;3.95;1.77;;;6.50;99.90;;;;;;5035977;28;20079;-76
2023/12/26 02:01:05;;;;;;;10.98;2.42;;;6.50;99.90;;;;;;5054355;28;20035;-75
2023/12/26 02:03:32;;;;;;;4.50;2.15;;;6.50;99.90;;;;;;5053991;28;20025;-75
2023/12/26 02:06:00;;;;;;;4.88;2.90;;;6.50;99.90;;;;;;5036111;28;20032;-76
2023/12/26 02:08:25;;;;;;;5.32;2.90;;;6.60;99.90;;;;;;5035964;28;20037;-76
2023/12/26 02:10:51;;;;;;;;;;;6.50;99.90;;;;;;5037027;28;20447;-76
2023/12/26 02:13:17;;;;;;;52.90;23.35;;;6.40;99.90;;;;;;5036104;28;19916;-76
2023/12/26 02:15:43;;;;;;;;;;;6.40;99.90;;;;;;5036606;28;20132;-76
2023/12/26 02:18:09;;;;;;;15.63;8.07;;;6.50;99.90;;;;;;5035245;28;19954;-76
2023/12/26 02:20:35;;;;;;;9.50;5.68;;;6.30;99.90;;;;;;5036180;28;20028;-76
2023/12/26 02:23:00;;;;;;;;;;;6.30;99.90;;;;;;5054600;28;20059;-76
2023/12/26 02:25:26;;;;;;;4.63;2.00;;;6.30;99.90;;;;;;5054207;28;20577;-76
2023/12/26 02:27:52;;;;;;;;;;;6.20;99.90;;;;;;5054826;28;20121;-75
2023/12/26 02:30:18;;;;;;;3.67;1.48;;;6.20;99.90;;;;;;5054124;28;19936;-76
2023/12/26 02:32:46;;;;;;;;;;;6.10;99.90;;;;;;5055438;28;20091;-76
2023/12/26 02:35:12;;;;;;;4.38;1.30;;;6.10;99.90;;;;;;5038188;28;19920;-78
2023/12/26 02:37:37;;;;;;;;;;;6.10;99.90;;;;;;5054906;28;20060;-76
2023/12/26 02:40:04;;;;;;;4.22;1.90;;;6.20;99.90;;;;;;5052008;28;19963;-75
2023/12/26 02:42:30;;;;;;;6.90;2.83;;;6.10;99.90;;;;;;5033736;28;20032;-76
2023/12/26 02:44:56;;;;;;;;;;;6.10;99.90;;;;;;5033944;28;20028;-75
2023/12/26 02:47:22;;;;;;;4.10;2.20;;;6.10;99.90;;;;;;5033992;28;19908;-76
2023/12/26 02:49:48;;;;;;;3.55;1.92;;;6.10;99.90;;;;;;5052201;28;20132;-76
2023/12/26 02:52:14;;;;;;;;;;;6.20;99.90;;;;;;5052032;28;20524;-76
2023/12/26 02:54:39;;;;;;;2.63;1.42;;;6.10;99.90;;;;;;5033633;28;19916;-75
2023/12/26 02:57:05;;;;;;;;;;;6.10;99.90;;;;;;5052489;28;20028;-75
2023/12/26 02:59:31;;;;;;;4.60;1.95;;;6.20;99.90;;;;;;5051687;28;19916;-75
2023/12/26 03:01:57;;;;;;;;;;;6.20;99.90;;;;;;5052305;28;20521;-75
2023/12/26 03:04:23;;;;;;;19.88;9.43;;;6.20;99.90;;;;;;5034204;28;19905;-75
2023/12/26 03:06:48;;;;;;;;;;;6.10;99.90;;;;;;5033898;28;20035;-75
2023/12/26 03:09:14;;;;;;;8.63;4.55;;;6.20;99.90;;;;;;5051607;28;20399;-76
2023/12/26 03:11:40;;;;;;;;;;;6.20;99.90;;;;;;5051888;28;20041;-75
2023/12/26 03:14:05;;;;;;;12.75;6.43;;;6.10;99.90;;;;;;5052084;28;20342;-75
2023/12/26 03:16:31;;;;;;;;;;;6.20;99.90;;;;;;5034743;28;20021;-76
2023/12/26 03:18:56;;;;;;;13.25;5.43;;;6.10;99.90;;;;;;5051801;28;19913;-75
2023/12/26 03:21:22;;;;;;;;;;;6.10;99.90;;;;;;5034057;28;20056;-75
2023/12/26 03:23:48;;;;;;;4.68;2.10;;;6.10;99.90;;;;;;5033441;28;19911;-76
2023/12/26 03:26:13;;;;;;;;;;;6.10;99.90;;;;;;5034215;28;20021;-77
2023/12/26 03:28:39;;;;;;;6.05;3.28;;;6.00;99.90;;;;;;5051528;28;19974;-76
2023/12/26 03:31:05;;;;;;;;;;;6.00;99.90;;;;;;5052135;28;20033;-75
2023/12/26 03:33:31;;;;;;;6.85;2.40;;;6.00;99.90;;;;;;5033680;28;19921;-75
2023/12/26 03:35:57;;;;;;;;;;;6.00;99.90;;;;;;5052665;28;20120;-76
2023/12/26 03:38:22;;;;;;;3.50;1.67;;;6.00;99.90;;;;;;5035080;28;19962;-76
2023/12/26 03:40:48;;;;;;;;;;;6.00;99.90;;;;;;5053133;28;20536;-76
2023/12/26 03:43:16;;;;;;;7.55;1.80;;;5.90;99.90;;;;;;5034124;28;20451;-75
2023/12/26 03:45:42;;;;;;;4.03;2.20;;;5.80;99.90;;;;;;5035122;28;20543;-75
2023/12/26 03:48:07;;;;;;;;;;;5.80;99.90;;;;;;5035503;28;20025;-77
2023/12/26 03:50:33;;;;;;;6.32;2.20;;;5.80;99.90;;;;;;5035206;28;20368;-76
2023/12/26 03:52:58;;;;;;;;;;;5.80;99.90;;;;;;5035616;28;20029;-76
2023/12/26 03:55:24;;;;;;;6.68;1.38;;;5.90;99.90;;;;;;5052566;28;20379;-76
2023/12/26 03:57:49;;;;;;;;;;;5.80;99.90;;;;;;5035590;28;20032;-75
2023/12/26 04:00:15;;;;;;;7.93;4.45;;;5.80;99.90;;;;;;5054323;28;19912;-76
2023/12/26 04:02:41;;;;;;;;;;;5.90;99.90;;;;;;5036885;28;20032;-76
2023/12/26 04:05:08;;;;;;;8.85;3.75;;;5.80;99.90;;;;;;5033264;28;19915;-75
2023/12/26 04:07:34;;;;;;;8.55;4.05;;;5.80;99.90;;;;;;5051297;28;20177;-76
2023/12/26 04:09:59;;;;;;;;;;;5.80;99.90;;;;;;5033917;28;20538;-75
2023/12/26 04:12:25;;;;;;;9.27;4.22;;;5.90;99.90;;;;;;5033631;28;20277;-76
2023/12/26 04:14:50;;;;;;;;;;;5.90;99.90;;;;;;5033306;28;20493;-76
2023/12/26 04:17:16;;;;;;;5.43;2.80;;;5.80;99.90;;;;;;5051371;28;20351;-76
2023/12/26 04:19:42;;;;;;;;;;;5.70;99.90;;;;;;5052146;28;20105;-76
2023/12/26 04:22:09;;;;;;;6.47;3.25;;;5.70;99.90;;;;;;5052078;28;19936;-76
2023/12/26 04:24:36;;;;;;;9.18;3.80;;;5.70;99.90;;;;;;5051731;28;20151;-75
2023/12/26 04:27:01;;;;;;;;;;;5.50;99.90;;;;;;5052114;28;20053;-77
2023/12/26 04:29:27;;;;;;;4.63;1.73;;;5.60;99.90;;;;;;5051577;28;19919;-76
2023/12/26 04:31:52;;;;;;;;;;;5.60;99.90;;;;;;5034177;28;20528;-77
2023/12/26 04:34:18;;;;;;;7.22;2.15;;;5.60;99.90;;;;;;5033746;28;20031;-77
2023/12/26 04:36:44;;;;;;;;;;;5.60;99.90;;;;;;5034547;28;20061;-77
2023/12/26 04:39:09;;;;;;;5.47;2.22;;;5.60;99.90;;;;;;5034049;28;19912;-77
2023/12/26 04:41:35;;;;;;;;;;;5.60;99.90;;;;;;5053562;28;20032;-76
2023/12/26 04:44:01;;;;;;;4.97;2.00;;;5.60;99.90;;;;;;5055591;28;19912;-75
2023/12/26 04:46:26;;;;;;;;;;;5.70;99.90;;;;;;5036946;28;20025;-77
2023/12/26 04:48:53;;;;;;;9.02;2.83;;;5.50;99.90;;;;;;5037127;28;19940;-75
2023/12/26 04:51:19;;;;;;;12.52;4.53;;;5.50;99.90;;;;;;5055350;28;20477;-76
2023/12/26 04:53:45;;;;;;;6.28;2.42;;;5.60;99.90;;;;;;5037530;28;20029;-76
2023/12/26 04:56:20;;;;;;;11.98;3.22;;;5.70;99.90;;;;;;5055435;28;20025;-76
2023/12/26 04:58:48;;;;;;;7.15;3.35;;;5.70;99.90;;;;;;5037112;28;20053;-74
2023/12/26 05:01:14;;;;;;;6.45;2.75;;;5.60;99.90;;;;;;5037018;28;20029;-75
2023/12/26 05:03:40;;;;;;;5.15;2.05;;;5.50;99.90;;;;;;5037249;28;20451;-76
2023/12/26 05:06:06;;;;;;;;;;;5.50;99.90;;;;;;5037330;28;20033;-76
2023/12/26 05:08:32;;;;;;;6.88;3.38;;;5.40;99.90;;;;;;5055628;28;19927;-76
2023/12/26 05:10:58;;;;;;;6.35;3.25;;;5.50;99.90;;;;;;5055578;28;20508;-75
2023/12/26 05:13:23;;;;;;;;;;;5.40;99.90;;;;;;5056294;28;20076;-76
2023/12/26 05:15:49;;;;;;;7.60;3.28;;;5.40;99.90;;;;;;5055228;28;20004;-76
2023/12/26 05:18:15;;;;;;;;;;;5.40;99.90;;;;;;5036833;28;20029;-76
2023/12/26 05:20:41;;;;;;;7.53;2.88;;;5.40;99.90;;;;;;5037181;28;19904;-76
2023/12/26 05:23:06;;;;;;;;;;;5.30;99.90;;;;;;5032586;28;20032;-76
2023/12/26 05:25:32;;;;;;;9.95;3.55;;;5.30;99.90;;;;;;5036866;28;19909;-76
2023/12/26 05:27:58;;;;;;;;;;;5.30;99.90;;;;;;5038001;28;20051;-76
2023/12/26 05:30:24;;;;;;;7.80;3.92;;;5.30;99.90;;;;;;5037441;28;20340;-76
2023/12/26 05:32:49;;;;;;;9.30;3.92;;;5.30;99.90;;;;;;5037200;28;20069;-76
2023/12/26 05:35:15;;;;;;;;;;;5.40;99.90;;;;;;5038065;28;20068;-75
2023/12/26 05:37:41;;;;;;;12.50;4.28;;;5.40;99.90;;;;;;5037630;28;19936;-76
2023/12/26 05:40:06;;;;;;;;;;;5.40;99.90;;;;;;5056321;28;20078;-76
2023/12/26 05:42:32;;;;;;;11.60;4.97;;;5.40;99.90;;;;;;5056669;28;19904;-75
2023/12/26 05:44:58;;;;;;;;;;;5.40;99.90;;;;;;5057893;28;20025;-76
2023/12/26 05:47:23;;;;;;;10.35;5.35;;;5.40;99.90;;;;;;5040607;28;19908;-76
2023/12/26 05:49:49;;;;;;;;;;;5.40;99.90;;;;;;5056223;28;20033;-76
2023/12/26 05:52:15;;;;;;;10.45;4.95;;;5.30;99.90;;;;;;5053872;28;19905;-76
2023/12/26 05:54:40;;;;;;;;;;;5.30;99.90;;;;;;5054346;28;20029;-76
2023/12/26 05:57:06;;;;;;;8.35;5.07;;;5.30;99.90;;;;;;5035784;28;19959;-76
2023/12/26 05:59:31;;;;;;;;;;;5.30;99.90;;;;;;5053767;28;20029;-76
2023/12/26 06:01:57;;;;;;;8.57;4.45;;;5.20;99.90;;;;;;5053997;28;20339;-76
2023/12/26 06:04:22;;;;;;;;;;;5.20;99.90;;;;;;5054676;28;20052;-76
2023/12/26 06:06:48;;;;;;;10.50;5.63;;;5.00;99.90;;;;;;5054006;28;20296;-75
2023/12/26 06:09:14;;;;;;;;;;;5.10;99.90;;;;;;5036351;28;20385;-76
2023/12/26 06:11:40;;;;;;;7.47;3.25;;;5.10;99.90;;;;;;5036577;28;20266;-76
2023/12/26 06:14:07;;;;;;;;;;;5.10;99.90;;;;;;5054933;28;20111;-77
2023/12/26 06:16:33;;;;;;;7.35;3.00;;;5.00;99.90;;;;;;5056474;28;19909;-76
2023/12/26 06:18:58;;;;;;;;;;;5.10;99.90;;;;;;5034992;28;20037;-76
2023/12/26 06:21:24;;;;;;;15.73;5.88;;;5.30;99.90;;;;;;5052507;28;19999;-76
2023/12/26 06:23:49;;;;;;;;;;;5.50;99.90;;;;;;5051742;28;20032;-76
2023/12/26 06:26:17;;;;;;;12.07;5.68;;;5.30;99.90;;;;;;5033984;28;19905;-77
2023/12/26 06:28:43;;;;;;;18.17;10.20;;;5.20;99.90;;;;;;5033708;28;20039;-76
2023/12/26 06:31:15;;;;;;;;;;;5.30;99.90;;;;;;5034018;28;20750;-76
2023/12/26 06:33:41;;;;;;;11.73;6.78;;;5.10;99.90;;;;;;5051319;28;19917;-75
2023/12/26 06:36:07;;;;;;;;;;;5.10;99.90;;;;;;5033924;28;20040;-77
2023/12/26 06:38:32;;;;;;;19.52;8.30;;;5.00;99.90;;;;;;5052306;28;19909;-76
2023/12/26 06:40:58;;;;;;;;;;;4.90;99.90;;;;;;5051931;28;20021;-76
2023/12/26 06:43:24;;;;;;;16.33;9.80;;;5.00;99.90;;;;;;5052278;28;19916;-76
2023/12/26 06:45:49;;;;;;;;;;;5.00;99.90;;;;;;5034672;28;20029;-76
2023/12/26 06:48:15;;;;;;;15.90;9.38;;;4.90;99.90;;;;;;5051720;28;19908;-76
2023/12/26 06:50:40;;;;;;;;;;;5.00;99.90;;;;;;5034266;28;20031;-76
2023/12/26 06:53:06;;;;;;;15.45;7.35;;;4.80;99.90;;;;;;5034523;28;20003;-77
2023/12/26 06:55:32;;;;;;;;;;;4.80;99.90;;;;;;5052250;28;20032;-77
2023/12/26 06:57:57;;;;;;;11.38;6.50;;;4.70;99.90;;;;;;5034499;28;19913;-75
2023/12/26 07:00:24;;;;;;;;;;;4.80;99.90;;;;;;5034149;28;20036;-76
2023/12/26 07:02:49;;;;;;;17.88;11.43;;;4.70;99.90;;;;;;5033704;28;20368;-76
2023/12/26 07:05:15;;;;;;;;;;;4.70;99.90;;;;;;5034090;28;20033;-76
2023/12/26 07:07:41;;;;;;;16.77;10.13;;;4.60;99.90;;;;;;5034481;28;19905;-77
2023/12/26 07:10:06;;;;;;;;;;;4.70;99.90;;;;;;5034921;28;20112;-77
2023/12/26 07:12:32;;;;;;;24.27;12.88;;;4.70;99.90;;;;;;5034565;28;19905;-77
2023/12/26 07:14:58;;;;;;;;;;;4.70;99.90;;;;;;5035018;28;20040;-77
2023/12/26 07:17:23;;;;;;;27.33;13.90;;;4.70;99.90;;;;;;5052757;28;19904;-76
2023/12/26 07:19:49;;;;;;;;;;;4.70;99.90;;;;;;5035282;28;20024;-76
2023/12/26 07:22:15;;;;;;;24.75;13.82;;;4.90;99.90;;;;;;5053766;28;19911;-76
2023/12/26 07:24:40;;;;;;;;;;;5.40;99.90;;;;;;5051674;28;20474;-77
2023/12/26 07:27:06;;;;;;;48.97;28.55;;;5.60;99.90;;;;;;5053161;28;19950;-76
2023/12/26 07:29:31;;;;;;;;;;;6.10;99.90;;;;;;5036789;28;20578;-77
2023/12/26 07:31:57;;;;;;;102.95;49.85;;;6.20;99.90;;;;;;5054668;28;19912;-76
2023/12/26 07:34:22;;;;;;;;;;;6.40;99.90;;;;;;5036250;28;20056;-77
2023/12/26 07:36:48;;;;;;;27.00;11.68;;;6.60;99.90;;;;;;5053241;28;19931;-77
2023/12/26 07:39:14;;;;;;;;;;;6.80;99.90;;;;;;5036197;28;20064;-76
2023/12/26 07:41:39;;;;;;;15.55;7.90;;;7.10;99.90;;;;;;5036217;28;19909;-77
2023/12/26 07:44:05;;;;;;;;;;;7.30;99.90;;;;;;5036380;28;20029;-76
2023/12/26 07:46:31;;;;;;;12.75;7.18;;;7.40;99.90;;;;;;5035281;28;19908;-77
2023/12/26 07:48:56;;;;;;;;;;;7.60;99.90;;;;;;5053629;28;20032;-77
2023/12/26 07:51:24;;;;;;;9.10;5.25;;;7.80;99.90;;;;;;5035042;28;19928;-76
2023/12/26 07:53:49;;;;;;;11.45;4.70;;;8.10;99.90;;;;;;5052593;28;20036;-76
2023/12/26 07:56:15;;;;;;;;;;;8.40;99.90;;;;;;5053991;28;20032;-77
2023/12/26 07:58:40;;;;;;;10.30;5.63;;;8.50;99.90;;;;;;5035382;28;19905;-77
2023/12/26 08:01:06;;;;;;;;;;;8.30;99.90;;;;;;5052949;28;20113;-76
2023/12/26 08:03:32;;;;;;;8.50;3.95;;;8.50;99.90;;;;;;5034773;28;19991;-76
2023/12/26 08:05:58;;;;;;;13.65;7.07;;;8.60;99.90;;;;;;5034809;28;20033;-76
2023/12/26 08:08:23;;;;;;;;;;;8.80;99.90;;;;;;5035086;28;20079;-77
2023/12/26 08:10:49;;;;;;;7.40;3.72;;;9.30;99.90;;;;;;5052310;28;19904;-75
2023/12/26 08:13:14;;;;;;;;;;;9.50;99.90;;;;;;5035232;28;20504;-76
2023/12/26 08:15:40;;;;;;;6.65;3.80;;;9.90;99.90;;;;;;5036437;28;19909;-76
2023/12/26 08:18:06;;;;;;;;;;;10.30;99.90;;;;;;5040546;28;20021;-76
2023/12/26 08:20:37;;;;;;;8.52;4.40;;;10.70;99.90;;;;;;5038997;28;20709;-76
2023/12/26 08:23:03;;;;;;;13.77;5.88;;;10.90;99.90;;;;;;5038466;28;20032;-75
2023/12/26 08:25:28;;;;;;;;;;;11.10;99.90;;;;;;5038593;28;20501;-76
2023/12/26 08:27:54;;;;;;;12.02;6.07;;;11.20;99.90;;;;;;5057778;28;19964;-76
2023/12/26 08:30:20;;;;;;;11.40;5.32;;;11.30;99.90;;;;;;5040522;28;20029;-76
2023/12/26 08:32:46;;;;;;;9.00;4.53;;;11.40;99.90;;;;;;5053342;28;20608;-77
2023/12/26 08:35:11;;;;;;;;;;;11.40;99.90;;;;;;5053951;28;20043;-77
2023/12/26 08:37:37;;;;;;;12.82;5.07;;;11.30;99.90;;;;;;5035615;28;20383;-77
2023/12/26 08:40:03;;;;;;;11.23;6.30;;;11.00;99.90;;;;;;5053688;28;20021;-76
2023/12/26 08:42:29;;;;;;;12.60;6.50;;;10.60;99.90;;;;;;5053305;28;20466;-75
2023/12/26 08:44:54;;;;;;;;;;;10.40;99.90;;;;;;5035808;28;20039;-75
2023/12/26 08:47:20;;;;;;;26.85;13.73;;;10.10;99.90;;;;;;5034984;28;19915;-75
2023/12/26 08:49:46;;;;;;;;;;;9.90;99.90;;;;;;5053555;28;20040;-76
2023/12/26 08:52:13;;;;;;;29.63;18.05;;;9.80;99.90;;;;;;5035415;28;19924;-75
2023/12/26 08:54:39;;;;;;;33.78;16.75;;;9.70;99.90;;;;;;5053188;28;20082;-76
2023/12/26 08:57:04;;;;;;;27.25;15.68;;;9.70;99.90;;;;;;5035963;28;20033;-76
2023/12/26 08:59:30;;;;;;;;;;;9.50;99.90;;;;;;5054612;28;20029;-75
2023/12/26 09:01:56;;;;;;;26.80;14.07;;;9.40;99.90;;;;;;5053637;28;19951;-76
2023/12/26 09:04:26;;;;;;;;;;;9.40;99.90;;;;;;5034552;28;20056;-76
2023/12/26 09:06:54;;;;;;;30.05;16.67;;;9.40;99.90;;;;;;5035549;28;19915;-75
2023/12/26 09:09:20;;;;;;;23.25;12.15;;;9.40;99.90;;;;;;5052850;28;20497;-76
2023/12/26 09:11:45;;;;;;;;;;;9.40;99.90;;;;;;5038230;28;20021;-76
2023/12/26 09:14:13;;;;;;;19.35;10.40;;;9.40;99.90;;;;;;5035518;28;19974;-75
2023/12/26 09:16:39;;;;;;;20.48;9.48;;;9.30;99.90;;;;;;5035719;28;20021;-76
2023/12/26 09:19:05;;;;;;;;;;;9.30;99.90;;;;;;5038369;28;20452;-76
2023/12/26 09:21:30;;;;;;;22.30;9.18;;;9.20;99.90;;;;;;5037313;28;19905;-76
2023/12/26 09:23:56;;;;;;;;;;;9.20;99.90;;;;;;5038066;28;20021;-76
2023/12/26 09:26:21;;;;;;;22.63;13.68;;;9.10;99.90;;;;;;5056330;28;19915;-76
2023/12/26 09:28:48;;;;;;;;;;;9.10;99.90;;;;;;5039555;28;20029;-77
2023/12/26 09:31:13;;;;;;;24.43;9.23;;;9.10;99.90;;;;;;5058221;28;19905;-76
2023/12/26 09:33:39;;;;;;;;;;;9.20;99.90;;;;;;5059692;28;20061;-77
2023/12/26 09:36:05;;;;;;;16.98;7.35;;;9.10;99.90;;;;;;5040083;28;19912;-76
2023/12/26 09:38:30;;;;;;;;;;;9.20;99.90;;;;;;5040909;28;20448;-77
2023/12/26 09:40:56;;;;;;;21.50;6.95;;;9.20;99.90;;;;;;5040080;28;19912;-76
2023/12/26 09:43:22;;;;;;;19.95;6.82;;;9.10;99.90;;;;;;5040433;28;20036;-76
2023/12/26 09:45:48;;;;;;;;;;;9.20;99.90;;;;;;5040919;28;20031;-77
2023/12/26 09:48:14;;;;;;;17.55;6.60;;;9.20;99.90;;;;;;5039065;28;19908;-76
2023/12/26 09:50:39;;;;;;;23.60;7.40;;;9.20;99.90;;;;;;5036326;28;20029;-76
2023/12/26 09:53:07;;;;;;;;;;;9.30;99.90;;;;;;5059229;28;20029;-75
2023/12/26 09:55:32;;;;;;;;;;;9.30;99.90;;;;;;5040174;28;20373;-76
2023/12/26 09:57:59;;;;;;;22.10;7.13;;;9.30;99.90;;;;;;5057514;28;19915;-77
2023/12/26 10:00:26;;;;;;;20.80;6.82;;;9.50;99.90;;;;;;5038923;28;20083;-77
2023/12/26 10:02:52;;;;;;;13.63;5.43;;;9.50;99.90;;;;;;5037989;28;20021;-77
2023/12/26 10:05:18;;;;;;;16.55;6.35;;;9.70;99.90;;;;;;5037594;28;20420;-76
2023/12/26 10:07:44;;;;;;;;;;;9.80;99.90;;;;;;5036472;28;20029;-76
2023/12/26 10:10:20;;;;;;;16.42;6.43;;;9.90;99.90;;;;;;5035916;28;19916;-76
2023/12/26 10:12:47;;;;;;;16.90;6.60;;;10.00;99.90;;;;;;5034856;28;20580;-76
2023/12/26 10:15:12;;;;;;;17.45;7.03;;;10.10;99.90;;;;;;5052655;28;20120;-77
2023/12/26 10:17:39;;;;;;;;;;;10.20;99.90;;;;;;5053808;28;20047;-77
2023/12/26 10:20:05;;;;;;;17.05;6.20;;;10.30;99.90;;;;;;5035368;28;20270;-76
2023/12/26 10:22:31;;;;;;;24.38;6.78;;;10.40;99.90;;;;;;5052474;28;20029;-76
2023/12/26 10:25:00;;;;;;;;;;;10.40;99.90;;;;;;5052669;28;20474;-77
2023/12/26 10:27:26;;;;;;;16.77;7.38;;;10.40;99.90;;;;;;5052927;28;19908;-77
2023/12/26 10:29:54;;;;;;;14.70;6.28;;;10.40;99.90;;;;;;5052456;28;20040;-77
2023/12/26 10:32:20;;;;;;;15.45;5.97;;;10.50;99.90;;;;;;5035756;28;20064;-76
2023/12/26 10:34:45;;;;;;;14.77;6.70;;;10.40;99.90;;;;;;5035127;28;20056;-76
2023/12/26 10:37:11;;;;;;;;;;;10.30;99.90;;;;;;5037201;28;20029;-76
2023/12/26 10:39:37;;;;;;;22.50;8.98;;;10.30;99.90;;;;;;5035053;28;19905;-76
2023/12/26 10:42:03;;;;;;;20.80;8.77;;;10.30;99.90;;;;;;5051887;28;20561;-76
2023/12/26 10:44:30;;;;;;;21.77;8.20;;;10.30;99.90;;;;;;5033526;28;20485;-77
2023/12/26 10:46:57;;;;;;;22.60;8.38;;;10.30;99.90;;;;;;5051378;28;20028;-76
2023/12/26 10:49:26;;;;;;;24.67;9.55;;;10.20;99.90;;;;;;5051567;28;20056;-76
2023/12/26 10:51:52;;;;;;;20.90;6.70;;;10.20;99.90;;;;;;5035172;28;20060;-76
2023/12/26 10:54:25;;;;;;;20.85;7.43;;;10.10;99.90;;;;;;5050715;28;20420;-77
2023/12/26 10:56:52;;;;;;;19.67;5.93;;;10.00;99.90;;;;;;5050779;28;20067;-77
2023/12/26 10:59:19;;;;;;;19.77;7.35;;;10.00;99.90;;;;;;5033166;28;20035;-77
2023/12/26 11:01:46;;;;;;;22.67;7.50;;;9.90;99.90;;;;;;5051205;28;20036;-76
2023/12/26 11:04:13;;;;;;;20.65;6.10;;;9.90;99.90;;;;;;5050647;28;20047;-77
2023/12/26 11:06:41;;;;;;;19.63;7.43;;;9.90;99.90;;;;;;5033186;28;20106;-77
2023/12/26 11:09:07;;;;;;;17.65;7.38;;;9.90;99.90;;;;;;5033141;28;20532;-76
2023/12/26 11:11:34;;;;;;;;;;;9.90;99.90;;;;;;5052095;28;20032;-77
2023/12/26 11:14:00;;;;;;;18.90;6.28;;;9.90;99.90;;;;;;5032906;28;19948;-76
2023/12/26 11:16:25;;;;;;;;;;;10.00;99.90;;;;;;5051098;28;20556;-76
2023/12/26 11:18:51;;;;;;;17.95;5.65;;;10.00;99.90;;;;;;5032790;28;19981;-77
2023/12/26 11:21:17;;;;;;;14.23;5.68;;;10.10;99.90;;;;;;5032964;28;20570;-76
2023/12/26 11:23:44;;;;;;;;;;;10.10;99.90;;;;;;5033312;28;20135;-76
2023/12/26 11:26:10;;;;;;;14.77;6.10;;;10.00;99.90;;;;;;5032375;28;19916;-77
2023/12/26 11:28:38;;;;;;;17.95;6.60;;;10.10;99.90;;;;;;5050523;28;20263;-76
2023/12/26 11:31:04;;;;;;;19.50;6.85;;;10.00;99.90;;;;;;5032767;28;20025;-77
2023/12/26 11:33:29;;;;;;;;;;;9.90;99.90;;;;;;5053883;28;20051;-76
2023/12/26 11:35:55;;;;;;;21.40;7.43;;;9.80;99.90;;;;;;5037745;28;20079;-76
2023/12/26 11:38:21;;;;;;;;;;;9.70;99.90;;;;;;5039049;28;20037;-76
2023/12/26 11:40:46;;;;;;;38.00;10.95;;;9.70;99.90;;;;;;5039612;28;19959;-76
2023/12/26 11:43:13;;;;;;;;;;;9.60;99.90;;;;;;5040152;28;20029;-76
2023/12/26 11:45:38;;;;;;;52.00;23.98;;;9.50;99.90;;;;;;5037601;28;19911;-76
2023/12/26 11:48:04;;;;;;;;;;;9.40;99.90;;;;;;5054654;28;20029;-76
2023/12/26 11:50:30;;;;;;;69.30;28.67;;;9.40;99.90;;;;;;5039771;28;19912;-76
2023/12/26 11:52:55;;;;;;;;;;;9.40;99.90;;;;;;5043983;28;20040;-76
2023/12/26 11:55:21;;;;;;;87.20;35.33;;;9.30;99.90;;;;;;5041774;28;19916;-76
2023/12/26 11:57:46;;;;;;;;;;;9.30;99.90;;;;;;5062405;28;20048;-76
2023/12/26 12:00:12;;;;;;;21.30;9.57;;;9.30;99.90;;;;;;5041685;28;20341;-76
2023/12/26 12:02:38;;;;;;;;;;;9.30;99.90;;;;;;5039753;28;20584;-76
2023/12/26 12:05:06;;;;;;;15.90;6.82;;;9.30;99.90;;;;;;5039658;28;20538;-76
2023/12/26 12:07:31;;;;;;;20.55;7.40;;;9.30;99.90;;;;;;5058967;28;20037;-76
2023/12/26 12:10:09;;;;;;;;;;;9.30;99.90;;;;;;5039053;28;20040;-76
2023/12/26 12:12:35;;;;;;;;;;;9.40;99.90;;;;;;5039294;28;19909;-76
2023/12/26 12:15:00;;;;;;;19.92;7.55;;;9.40;99.90;;;;;;5039265;28;19916;-76
2023/12/26 12:17:26;;;;;;;;;;;9.40;99.90;;;;;;5057243;28;20077;-76
2023/12/26 12:19:52;;;;;;;17.70;7.50;;;9.40;99.90;;;;;;5057977;28;19916;-77
2023/12/26 12:22:24;;;;;;;;;;;9.50;99.90;;;;;;5039649;28;20047;-76
2023/12/26 12:24:50;;;;;;;19.88;6.78;;;9.50;99.90;;;;;;5039359;28;19909;-78
2023/12/26 12:27:16;;;;;;;24.20;7.50;;;9.50;99.90;;;;;;5055535;28;20040;-76
2023/12/26 12:30:00;;;;;;;;;;;9.60;99.90;;;;;;5039974;28;20021;-76
2023/12/26 12:32:33;;;;;;;15.10;6.85;;;9.60;99.90;;;;;;5058126;28;20003;-75
2023/12/26 12:35:16;;;;;;;17.23;6.32;;;9.60;99.90;;;;;;5058067;28;20071;-76
2023/12/26 12:37:42;;;;;;;18.90;6.35;;;9.50;99.90;;;;;;5039495;28;20021;-75
2023/12/26 12:40:08;;;;;;;22.25;6.88;;;9.50;99.90;;;;;;5056724;28;20037;-76
2023/12/26 12:42:34;;;;;;;;;;;9.40;99.90;;;;;;5058329;28;20047;-76
2023/12/26 12:45:01;;;;;;;22.48;8.18;;;9.40;99.90;;;;;;5059095;28;20007;-77
2023/12/26 12:47:27;;;;;;;13.88;5.95;;;9.30;99.90;;;;;;5041212;28;20107;-76
2023/12/26 12:49:54;;;;;;;;;;;9.20;99.90;;;;;;5056193;28;20118;-76
2023/12/26 12:52:20;;;;;;;13.57;5.80;;;9.30;99.90;;;;;;5055765;28;20410;-75
2023/12/26 12:54:45;;;;;;;;;;;9.30;99.90;;;;;;5055516;28;20072;-76
2023/12/26 12:57:11;;;;;;;20.75;7.10;;;9.20;99.90;;;;;;5036756;28;19909;-76
2023/12/26 12:59:36;;;;;;;;;;;9.30;99.90;;;;;;5037786;28;20040;-76
2023/12/26 13:02:04;;;;;;;19.95;7.38;;;9.30;99.90;;;;;;5055123;28;19913;-76
2023/12/26 13:04:29;;;;;;;19.88;8.43;;;9.30;99.90;;;;;;5055681;28;20025;-76
2023/12/26 13:06:55;;;;;;;;;;;9.30;99.90;;;;;;5038271;28;20055;-76
2023/12/26 13:09:21;;;;;;;17.80;8.25;;;9.30;99.90;;;;;;5037644;28;20019;-76
2023/12/26 13:11:46;;;;;;;;;;;9.30;99.90;;;;;;5056281;28;20057;-76
2023/12/26 13:14:16;;;;;;;26.10;8.70;;;9.30;99.90;;;;;;5055026;28;20419;-76
2023/12/26 13:16:41;;;;;;;24.23;10.00;;;9.30;99.90;;;;;;5037535;28;20060;-76
2023/12/26 13:19:08;;;;;;;;;;;9.30;99.90;;;;;;5038218;28;20029;-76